Flight Track Log - Related Links

Times and Time Zones

All times are in EDT time to prevent confusion due to time zone crossing. See the FFT309 flight status page for this flight to view local times or setup timezone preferences in your user account.

Time Position Orientation Groundspeed Altitude Reporting Facility
EDT Latitude Longitude Course Direction KTS MPH feet Rate Location/Type
Wed 10:33:26 AM 39.9333 -104.7000 346° North 192 221 7,100  Level Denver TRACON
Wed 10:38:20 AM 40.3500 -104.8333 335° Northwest 361 415 16,800 1,938 Climbing Denver TRACON
Wed 10:39:22 AM 40.4411 -104.8892 337° Northwest 389 448 18,600 2,208 Climbing Denver Center
Wed 10:40:25 AM 40.5483 -104.9489 337° Northwest 389 448 21,400 2,160 Climbing Denver Center
Wed 10:41:27 AM 40.6481 -105.0056 338° Northwest 394 453 23,100 1,776 Climbing Denver Center
Wed 10:42:30 AM 40.7536 -105.0631 321° Northwest 402 463 25,100 1,776 Climbing Denver Center
Wed 10:43:32 AM 40.8411 -105.1572 320° Northwest 412 474 26,800 1,584 Climbing Denver Center
Wed 10:44:35 AM 40.9447 -105.2708 320° Northwest 414 476 28,400 1,152 Climbing Denver Center
Wed 10:45:37 AM 41.0303 -105.3672 319° Northwest 430 495 29,200 1,056 Climbing Denver Center
Wed 10:46:40 AM 41.1369 -105.4903 319° Northwest 448 516 30,600 1,344 Climbing Denver Center
Wed 10:47:42 AM 41.2286 -105.5961 319° Northwest 454 522 32,000 1,680 Climbing Denver Center
Wed 10:48:45 AM 41.3342 -105.7172 314° West 449 517 34,100 1,728 Climbing Denver Center
Wed 10:49:47 AM 41.4128 -105.8242 314° West 429 494 35,600 1,296 Climbing Denver Center
Wed 10:50:50 AM 41.5044 -105.9506 314° West 424 488 36,800 1,008 Climbing Denver Center
Wed 10:51:52 AM 41.5811 -106.0567 314° West 419 482 37,700 576 Climbing Denver Center
Wed 10:52:55 AM 41.6711 -106.1800 313° West 415 478 38,000 144 Climbing Denver Center
Wed 10:53:57 AM 41.7486 -106.2925 310° West 423 487 38,000  Level Denver Center
Wed 10:54:59 AM 41.8342 -106.4303 310° West 427 491 38,000  Level Denver Center
Wed 10:56:02 AM 41.9108 -106.5536 309° West 428 493 38,000  Level Denver Center
Wed 10:56:46 AM 41.9664 -106.6453 310° West 428 493 38,000 56 Level Salt Lake Center
Wed 10:57:49 AM 42.0428 -106.7686 310° West 429 494 38,100  Climbing Salt Lake Center
Wed 10:58:51 AM 42.1286 -106.9050 310° West 428 493 38,000 -48 Descending Salt Lake Center
Wed 10:59:53 AM 42.2000 -107.0203 310° West 425 489 38,000  Level Salt Lake Center
Wed 11:00:56 AM 42.2828 -107.1547 309° West 421 484 38,000  Level Salt Lake Center
Wed 11:01:58 AM 42.3519 -107.2694 309° West 417 480 38,000  Level Salt Lake Center
Wed 11:03:01 AM 42.4353 -107.4075 310° West 422 486 38,000 48 Level Salt Lake Center
Wed 11:04:03 AM 42.5086 -107.5269 309° West 428 493 38,100  Climbing Salt Lake Center
Wed 11:05:06 AM 42.5922 -107.6667 309° West 428 493 38,000 -48 Descending Salt Lake Center
Wed 11:06:08 AM 42.6639 -107.7867 309° West 429 494 38,000  Level Salt Lake Center
Wed 11:07:11 AM 42.7464 -107.9264 309° West 426 490 38,000  Level Salt Lake Center
Wed 11:08:13 AM 42.8186 -108.0464 309° West 428 493 38,000 48 Level Salt Lake Center
Wed 11:09:16 AM 42.9022 -108.1875 308° West 429 494 38,100  Climbing Salt Lake Center
Wed 11:10:18 AM 42.9842 -108.3292 309° West 431 496 38,000 -48 Descending Salt Lake Center
Wed 11:11:21 AM 43.0553 -108.4511 309° West 430 495 38,000  Level Salt Lake Center
Wed 11:12:23 AM 43.1389 -108.5914 309° West 428 493 38,000  Level Salt Lake Center
Wed 11:13:26 AM 43.2100 -108.7136 308° West 428 493 38,000  Level Salt Lake Center
Wed 11:14:28 AM 43.2936 -108.8600 309° West 432 497 38,000 48 Level Salt Lake Center
Wed 11:15:31 AM 43.3661 -108.9839 308° West 434 499 38,100  Climbing Salt Lake Center
Wed 11:16:33 AM 43.4483 -109.1300 308° West 433 498 38,000 -48 Descending Salt Lake Center
Wed 11:17:36 AM 43.5197 -109.2539 308° West 432 497 38,000  Level Salt Lake Center
Wed 11:18:38 AM 43.6031 -109.4008 308° West 434 499 38,000  Level Salt Lake Center
Wed 11:19:41 AM 43.6736 -109.5242 308° West 436 502 38,000 48 Level Salt Lake Center
Wed 11:20:43 AM 43.7600 -109.6756 307° West 445 512 38,100 48 Climbing Salt Lake Center
Wed 11:21:46 AM 43.8325 -109.8072 308° West 448 516 38,100  Level Salt Lake Center
Wed 11:22:48 AM 43.9189 -109.9603 308° West 450 518 38,100 -48 Level Salt Lake Center
Wed 11:23:51 AM 43.9925 -110.0914 307° West 450 518 38,000 -48 Descending Salt Lake Center
Wed 11:24:53 AM 44.0772 -110.2456 307° West 450 518 38,000  Level Salt Lake Center
Wed 11:25:56 AM 44.1614 -110.3989 307° West 448 516 38,000  Level Salt Lake Center
Wed 11:26:59 AM 44.2331 -110.5297 307° West 445 512 38,000  Level Salt Lake Center
Wed 11:28:01 AM 44.3142 -110.6811 307° West 439 505 38,000  Level Salt Lake Center
Wed 11:29:04 AM 44.3842 -110.8111 307° West 438 504 38,000  Level Salt Lake Center
Wed 11:30:06 AM 44.4689 -110.9664 307° West 448 516 38,000  Level Salt Lake Center
Wed 11:31:09 AM 44.5414 -111.1008 307° West 452 520 38,000  Level Salt Lake Center
Wed 11:32:11 AM 44.6233 -111.2561 307° West 449 517 38,000 48 Level Salt Lake Center
Wed 11:33:14 AM 44.7050 -111.4103 307° West 450 518 38,100 48 Climbing Salt Lake Center
Wed 11:34:17 AM 44.7764 -111.5453 307° West 454 522 38,100 -48 Level Salt Lake Center
Wed 11:35:19 AM 44.8597 -111.7036 307° West 453 521 38,000 -48 Descending Salt Lake Center
Wed 11:36:22 AM 44.9303 -111.8358 306° West 447 514 38,000  Level Salt Lake Center
Wed 11:37:24 AM 45.0111 -111.9936 306° West 445 512 38,000 48 Level Salt Lake Center
Wed 11:38:27 AM 45.0822 -112.1314 306° West 450 518 38,100  Climbing Salt Lake Center
Wed 11:39:29 AM 45.1658 -112.2922 306° West 453 521 38,000 -48 Descending Salt Lake Center
Wed 11:40:32 AM 45.2378 -112.4322 306° West 457 526 38,000 48 Level Salt Lake Center
Wed 11:41:34 AM 45.3206 -112.5964 306° West 458 527 38,100  Climbing Salt Lake Center
Wed 11:42:37 AM 45.3933 -112.7417 306° West 457 526 38,000 -48 Descending Salt Lake Center
Wed 11:43:39 AM 45.4681 -112.8881 305° West 456 525 38,000 -48 Level Salt Lake Center
Wed 11:44:42 AM 45.5414 -113.0353 306° West 455 524 37,900  Descending Salt Lake Center
Wed 11:45:44 AM 45.6300 -113.2128 305° West 456 525 38,000 48 Climbing Salt Lake Center
Wed 11:46:47 AM 45.7044 -113.3653 306° West 462 532 38,000  Level Salt Lake Center
Wed 11:47:49 AM 45.7792 -113.5147 305° West 463 533 38,000  Level Salt Lake Center
Wed 11:48:52 AM 45.8472 -113.6533 305° West 460 529 38,000 -48 Level Salt Lake Center
Wed 11:49:54 AM 45.9353 -113.8325 305° West 459 528 37,900 -48 Descending Salt Lake Center
Wed 11:50:57 AM 46.0072 -113.9803 305° West 455 524 37,900  Level Salt Lake Center
Wed 11:51:59 AM 46.0781 -114.1283 305° West 451 519 37,900 48 Level Salt Lake Center
Wed 11:53:02 AM 46.1500 -114.2789 305° West 455 524 38,000 48 Climbing Salt Lake Center
Wed 11:54:04 AM 46.2225 -114.4314 305° West 458 527 38,000  Level Salt Lake Center
Wed 11:55:07 AM 46.3103 -114.6150 304° West 461 531 38,000  Level Salt Lake Center
Wed 11:55:40 AM 46.3392 -114.6778 304° West 462 532 38,000  Level Seattle Center
Wed 11:56:41 AM 46.4119 -114.8336 305° West 465 535 38,000  Level Seattle Center
Wed 11:57:12 AM 46.4561 -114.9250 303° West 465 535 38,000  Level Salt Lake Center
Wed 11:57:43 AM 46.4989 -115.0206 304° West 465 535 38,000 -65 Level Seattle Center
Wed 11:58:44 AM 46.5672 -115.1661 304° West 465 535 37,900 -319 Descending Seattle Center
Wed 11:59:17 AM 46.6108 -115.2606 304° West 466 536 37,500 -2,526 Descending Salt Lake Center
Wed 12:00:19 PM 46.6872 -115.4278 304° West 469 540 33,900 -3,312 Descending Salt Lake Center
Wed 12:01:22 PM 46.7617 -115.5911 304° West 478 550 30,600 -2,784 Descending Salt Lake Center
Wed 12:02:24 PM 46.8347 -115.7500 303° West 474 545 28,100 -2,304 Descending Salt Lake Center
Wed 12:03:27 PM 46.9003 -115.8956 303° West 438 504 25,800 -2,304 Descending Salt Lake Center
Wed 12:04:29 PM 46.9694 -116.0514 304° West 406 467 23,300 -2,081 Descending Salt Lake Center
Wed 12:05:31 PM 47.0283 -116.1817 303° West 392 451 21,500 -1,728 Descending Salt Lake Center
Wed 12:06:34 PM 47.0822 -116.3033 303° West 367 422 19,700 -1,614 Descending Salt Lake Center
Wed 12:07:56 PM 47.1544 -116.4653 304° West 344 396 17,600 -1,542 Descending Seattle Center
Wed 12:08:58 PM 47.2047 -116.5764 304° West 331 381 16,000 -1,512 Descending Seattle Center
Wed 12:09:59 PM 47.2533 -116.6842 308° West 320 368 14,500 -1,475 Descending Seattle Center
Wed 12:11:00 PM 47.3058 -116.7819 325° Northwest 306 352 13,000 -1,268 Descending Seattle Center
Wed 12:12:02 PM 47.3764 -116.8550 325° Northwest 310 357 11,900 -1,317 Descending Seattle Center
Wed 12:13:03 PM 47.4578 -116.9403 327° Northwest 298 343 10,300 -1,574 Descending Seattle Center
Wed 12:14:04 PM 47.5189 -117.0000 329° Northwest 262 302 8,700 -1,561 Descending Seattle Center
Wed 12:15:06 PM 47.5831 -117.0578 329° Northwest 269 310 7,100 -829 Descending Seattle Center
Wed 12:16:07 PM 47.6414 -117.1097 297° West 238 274 7,000 -639 Descending Seattle Center
Wed 12:17:08 PM 47.6708 -117.1944 298° West 215 247 5,800 -927 Descending Seattle Center
Wed 12:18:10 PM 47.6981 -117.2700 299° West 210 242 5,100 -683 Descending Seattle Center
Wed 12:19:11 PM 47.7253 -117.3436 247° West 206 237 4,400 -537 Descending Seattle Center
Wed 12:20:13 PM 47.7089 -117.4017 226° Southwest 151 174 4,000 -293 Descending Seattle Center
Wed 12:21:14 PM 47.6817 -117.4439 225° Southwest 140 161 3,800 -393 Descending Seattle Center
Wed 12:22:15 PM 47.6575 -117.4797 226° Southwest 127 146 3,200 -634 Descending Seattle Center
Wed 12:23:17 PM 47.6339 -117.5156 226° Southwest 124 143 2,500 -390 Descending Seattle Center
Wed 12:24:18 PM 47.6192 -117.5381 298° West 91 105 2,400 -49 Descending Seattle Center
Wed 12:25:19 PM 47.6203 -117.5411 298° West 46 53 2,400  Level Seattle Center

Login

Don't have an account? Register now (free) for customized features, flight alerts, and more!